DFSRT EKBI-EDDN
Flight info
| Callsign | DFSRT |
|---|---|
| Flight time | 1h 26m |
| Altitude | 27000 |
| Route | ALS M852 TUGDU/N0315F290 M852 POVEL Z94 KENIG DCT EKSOS DCT PIVIR PIVIR1V |
| Aircraft | TBM9/L-SDFGRWY/S |
Departure
| Time | 2025-10-10 08:41 |
|---|---|
| Airport | Billund Airport (EKBI) |
Arrival
| Time | 2025-10-10 10:07 |
|---|---|
| Airport | Nuremberg Airport (EDDN) |
| Time | Latitude | Longitude | Altitude | Speed | Heading |
|---|---|---|---|---|---|
| 2025-10-10 08:17 | 55.74383 | 9.14788 | 222 ft | 0 kts | 178° |
| 2025-10-10 08:35 | 55.74452 | 9.14897 | 223 ft | 12 kts | 92° |
| 2025-10-10 08:35 | 55.74316 | 9.14983 | 223 ft | 4 kts | 179° |
| 2025-10-10 08:36 | 55.74230 | 9.15000 | 223 ft | 9 kts | 164° |
| 2025-10-10 08:36 | 55.74205 | 9.15225 | 225 ft | 11 kts | 86° |
| 2025-10-10 08:37 | 55.74209 | 9.15400 | 226 ft | 0 kts | 88° |
| 2025-10-10 08:38 | 55.74235 | 9.16030 | 230 ft | 61 kts | 89° |
| 2025-10-10 08:38 | 55.74222 | 9.16907 | 236 ft | 16 kts | 172° |
| 2025-10-10 08:39 | 55.74090 | 9.16827 | 237 ft | 12 kts | 264° |
| 2025-10-10 08:39 | 55.74054 | 9.15763 | 228 ft | 97 kts | 268° |
| 2025-10-10 08:40 | 55.74023 | 9.14348 | 424 ft | 129 kts | 272° |
| 2025-10-10 08:40 | 55.74942 | 9.10061 | 1501 ft | 165 kts | 309° |
| 2025-10-10 08:41 | 55.75862 | 9.07834 | 2033 ft | 169 kts | 307° |
| 2025-10-10 08:41 | 55.77062 | 9.05035 | 2721 ft | 171 kts | 309° |
| 2025-10-10 08:42 | 55.79117 | 9.00026 | 4018 ft | 167 kts | 297° |
| 2025-10-10 08:42 | 55.79090 | 8.95851 | 4912 ft | 182 kts | 256° |
| 2025-10-10 08:43 | 55.77069 | 8.92836 | 5792 ft | 213 kts | 203° |
| 2025-10-10 08:43 | 55.74122 | 8.94298 | 6659 ft | 238 kts | 147° |
| 2025-10-10 08:44 | 55.71407 | 8.97864 | 7370 ft | 246 kts | 146° |
| 2025-10-10 08:44 | 55.70012 | 8.99660 | 7743 ft | 249 kts | 146° |
| 2025-10-10 08:45 | 55.67204 | 9.03264 | 8483 ft | 252 kts | 145° |
| 2025-10-10 08:45 | 55.64358 | 9.06918 | 9246 ft | 253 kts | 144° |
| 2025-10-10 08:46 | 55.60052 | 9.12426 | 10398 ft | 256 kts | 144° |
| 2025-10-10 08:46 | 55.57134 | 9.16149 | 11113 ft | 258 kts | 144° |
| 2025-10-10 08:47 | 55.54209 | 9.19881 | 11866 ft | 260 kts | 144° |
| 2025-10-10 08:47 | 55.51275 | 9.23612 | 12611 ft | 263 kts | 144° |
| 2025-10-10 08:48 | 55.48292 | 9.27400 | 13378 ft | 266 kts | 145° |
| 2025-10-10 08:48 | 55.46788 | 9.29306 | 13768 ft | 267 kts | 145° |
| 2025-10-10 08:49 | 55.43751 | 9.33151 | 14508 ft | 270 kts | 145° |
| 2025-10-10 08:49 | 55.40673 | 9.37038 | 15192 ft | 273 kts | 145° |
| 2025-10-10 08:50 | 55.36028 | 9.42893 | 16274 ft | 275 kts | 145° |
| 2025-10-10 08:50 | 55.32911 | 9.46814 | 17043 ft | 276 kts | 144° |
| 2025-10-10 08:51 | 55.29770 | 9.50666 | 17823 ft | 278 kts | 144° |
| 2025-10-10 08:51 | 55.26641 | 9.54683 | 18616 ft | 279 kts | 144° |
| 2025-10-10 08:52 | 55.23468 | 9.58635 | 19301 ft | 280 kts | 144° |
| 2025-10-10 08:52 | 55.21881 | 9.60624 | 19652 ft | 280 kts | 143° |
| 2025-10-10 08:53 | 55.18714 | 9.64620 | 20368 ft | 280 kts | 144° |
| 2025-10-10 08:54 | 55.12362 | 9.72453 | 21821 ft | 279 kts | 143° |
| 2025-10-10 08:54 | 55.09198 | 9.76371 | 22588 ft | 278 kts | 143° |
| 2025-10-10 08:54 | 55.07620 | 9.78323 | 22980 ft | 277 kts | 143° |
| 2025-10-10 08:55 | 55.04485 | 9.82193 | 23820 ft | 274 kts | 143° |
| 2025-10-10 08:55 | 55.01362 | 9.86004 | 24486 ft | 274 kts | 143° |
| 2025-10-10 08:56 | 54.96701 | 9.91814 | 25521 ft | 275 kts | 142° |
| 2025-10-10 08:58 | 54.80179 | 9.95919 | 27345 ft | 314 kts | 197° |
| 2025-10-10 09:00 | 54.64387 | 9.90767 | 27353 ft | 338 kts | 197° |
| 2025-10-10 09:03 | 54.40892 | 9.90453 | 27363 ft | 349 kts | 168° |
| 2025-10-10 09:04 | 54.24400 | 9.97385 | 27377 ft | 349 kts | 168° |
| 2025-10-10 09:06 | 54.05518 | 10.05269 | 27358 ft | 350 kts | 168° |
| 2025-10-10 09:08 | 53.86514 | 10.13114 | 27379 ft | 351 kts | 168° |
| 2025-10-10 09:10 | 53.67473 | 10.20968 | 27389 ft | 354 kts | 166° |
| 2025-10-10 09:12 | 53.48449 | 10.29692 | 27387 ft | 355 kts | 167° |
| 2025-10-10 09:14 | 53.29422 | 10.38282 | 27393 ft | 354 kts | 167° |
| 2025-10-10 09:16 | 53.10379 | 10.46776 | 27381 ft | 355 kts | 167° |
| 2025-10-10 09:18 | 52.91295 | 10.55217 | 27395 ft | 355 kts | 167° |
| 2025-10-10 09:20 | 52.72234 | 10.63670 | 27408 ft | 354 kts | 166° |
| 2025-10-10 09:22 | 52.53224 | 10.72084 | 27413 ft | 353 kts | 166° |
| 2025-10-10 09:24 | 52.34237 | 10.79786 | 27429 ft | 351 kts | 178° |
| 2025-10-10 09:26 | 52.14763 | 10.82530 | 27415 ft | 351 kts | 174° |
| 2025-10-10 09:28 | 51.98003 | 10.95596 | 27415 ft | 350 kts | 150° |
| 2025-10-10 09:30 | 51.80831 | 11.10344 | 27419 ft | 349 kts | 150° |
| 2025-10-10 09:32 | 51.63614 | 11.24924 | 27443 ft | 349 kts | 156° |
| 2025-10-10 09:34 | 51.44438 | 11.27738 | 27427 ft | 347 kts | 179° |
| 2025-10-10 09:36 | 51.25103 | 11.29190 | 27438 ft | 347 kts | 179° |
| 2025-10-10 09:38 | 51.05810 | 11.30625 | 27438 ft | 348 kts | 179° |
| 2025-10-10 09:40 | 50.88894 | 11.31874 | 27440 ft | 347 kts | 178° |
| 2025-10-10 09:42 | 50.67245 | 11.33459 | 27440 ft | 345 kts | 178° |
| 2025-10-10 09:44 | 50.47505 | 11.38365 | 25123 ft | 354 kts | 169° |
| 2025-10-10 09:45 | 50.42640 | 11.39783 | 24253 ft | 358 kts | 169° |
| 2025-10-10 09:45 | 50.37744 | 11.41220 | 23255 ft | 356 kts | 170° |
| 2025-10-10 09:46 | 50.32867 | 11.42643 | 22314 ft | 357 kts | 170° |
| 2025-10-10 09:46 | 50.27983 | 11.44063 | 21375 ft | 356 kts | 170° |
| 2025-10-10 09:47 | 50.23122 | 11.45481 | 20433 ft | 355 kts | 170° |
| 2025-10-10 09:47 | 50.18320 | 11.46873 | 19510 ft | 352 kts | 170° |
| 2025-10-10 09:48 | 50.13526 | 11.48261 | 18569 ft | 349 kts | 171° |
| 2025-10-10 09:48 | 50.08792 | 11.49636 | 17644 ft | 343 kts | 171° |
| 2025-10-10 09:49 | 50.04141 | 11.50973 | 16729 ft | 336 kts | 171° |
| 2025-10-10 09:49 | 49.99560 | 11.52297 | 15847 ft | 332 kts | 171° |
| 2025-10-10 09:50 | 49.95041 | 11.53595 | 14971 ft | 329 kts | 171° |
| 2025-10-10 09:50 | 49.90562 | 11.54879 | 14099 ft | 326 kts | 171° |
| 2025-10-10 09:51 | 49.86147 | 11.56144 | 13185 ft | 323 kts | 171° |
| 2025-10-10 09:51 | 49.81753 | 11.57399 | 12275 ft | 319 kts | 171° |
| 2025-10-10 09:52 | 49.77416 | 11.58640 | 11415 ft | 315 kts | 171° |
| 2025-10-10 09:52 | 49.73123 | 11.59861 | 10594 ft | 312 kts | 171° |
| 2025-10-10 09:53 | 49.70989 | 11.60469 | 10178 ft | 311 kts | 171° |
| 2025-10-10 09:53 | 49.64690 | 11.62256 | 8900 ft | 305 kts | 172° |
| 2025-10-10 09:54 | 49.60684 | 11.63412 | 8064 ft | 279 kts | 171° |
| 2025-10-10 09:54 | 49.56989 | 11.64440 | 7407 ft | 265 kts | 172° |
| 2025-10-10 09:55 | 49.53353 | 11.65050 | 6713 ft | 261 kts | 191° |
| 2025-10-10 09:55 | 49.49803 | 11.64171 | 6011 ft | 257 kts | 192° |
| 2025-10-10 09:56 | 49.46281 | 11.63316 | 5340 ft | 253 kts | 192° |
| 2025-10-10 09:56 | 49.42924 | 11.62374 | 4841 ft | 239 kts | 202° |
| 2025-10-10 09:57 | 49.41463 | 11.58646 | 2999 ft | 207 kts | 311° |
| 2025-10-10 09:57 | 49.42692 | 11.55571 | 3120 ft | 159 kts | 291° |
| 2025-10-10 09:58 | 49.43457 | 11.52081 | 3511 ft | 177 kts | 297° |
| 2025-10-10 09:58 | 49.44899 | 11.49006 | 3965 ft | 182 kts | 318° |
| 2025-10-10 09:59 | 49.46146 | 11.45473 | 3964 ft | 198 kts | 285° |
| 2025-10-10 09:59 | 49.46574 | 11.41406 | 3965 ft | 188 kts | 283° |
| 2025-10-10 10:00 | 49.46947 | 11.37498 | 3963 ft | 180 kts | 283° |
| 2025-10-10 10:00 | 49.47315 | 11.33779 | 3966 ft | 172 kts | 284° |
| 2025-10-10 10:01 | 49.47488 | 11.32023 | 3965 ft | 159 kts | 283° |
| 2025-10-10 10:01 | 49.47940 | 11.27454 | 3475 ft | 136 kts | 284° |
| 2025-10-10 10:02 | 49.48204 | 11.24758 | 3144 ft | 125 kts | 283° |
| 2025-10-10 10:02 | 49.48424 | 11.22493 | 2835 ft | 78 kts | 285° |
| 2025-10-10 10:03 | 49.48599 | 11.20728 | 2609 ft | 87 kts | 282° |
| 2025-10-10 10:03 | 49.48822 | 11.18893 | 2395 ft | 88 kts | 286° |
| 2025-10-10 10:04 | 49.49017 | 11.16978 | 2105 ft | 89 kts | 281° |
| 2025-10-10 10:04 | 49.49095 | 11.16056 | 1967 ft | 89 kts | 282° |
| 2025-10-10 10:05 | 49.49274 | 11.14203 | 1709 ft | 87 kts | 277° |
| 2025-10-10 10:05 | 49.49504 | 11.11430 | 1393 ft | 91 kts | 277° |
| 2025-10-10 10:06 | 49.49700 | 11.09488 | 1083 ft | 87 kts | 280° |
| 2025-10-10 10:06 | 49.49850 | 11.08008 | 1025 ft | 49 kts | 275° |
| 2025-10-10 10:07 | 49.49875 | 11.07707 | 1021 ft | 20 kts | 264° |
| 2025-10-10 10:07 | 49.49748 | 11.07709 | 1020 ft | 0 kts | 155° |
| 2025-10-10 10:08 | 49.49652 | 11.07772 | 1022 ft | 10 kts | 181° |
| 2025-10-10 10:08 | 49.49591 | 11.07715 | 1021 ft | 13 kts | 266° |
| 2025-10-10 10:09 | 49.49624 | 11.07381 | 1020 ft | 18 kts | 279° |
| 2025-10-10 10:09 | 49.49486 | 11.07356 | 1021 ft | 9 kts | 87° |
| 2025-10-10 10:10 | 49.49511 | 11.07375 | 1021 ft | 1 kts | 218° |
| 2025-10-10 10:10 | 49.49510 | 11.07374 | 1021 ft | 0 kts | 201° |